Airfield :
LOGIN :

Register | Disclaimer

   EN    FR    IT 

 










Legend :    VFR   Marginal VFR   IFR   Intensive IFR   Very Intensive IFR
Visi :
Ceiling :
>= 8 km
>= 3000ft
5 to 8 km
1000 to 3000 ft
1500m to 5 km
500 to 1000 ft
800 to 1500m
200 to 500 ft
< 800m
< 200 ft
Symbols :   Thunderstorms  Fog  Heavy snow  Heavy precipitations  Wind > 20 kt
SIGMETs :     Misc.  Thunderstorms  Icing  Turbulence  Mountain Waves  Volcanic Ashes







- Airport Elevation : 13 ft
- IATA code : CEQ
- Download approach charts


LFMD - Cannes Mandelieu

CURRENT METAR :
  • 261230Z AUTO 16010KT CAVOK 29/14 Q1005 NOSIG

EXPIRED METARs :
  • 261200Z AUTO 17013KT CAVOK 29/14 Q1006 NOSIG
  • 261130Z AUTO 17013KT CAVOK 29/13 Q1006 NOSIG
  • 261100Z AUTO 17011KT CAVOK 28/14 Q1006 NOSIG
  • 261030Z AUTO 17010KT 140V200 CAVOK 29/14 Q1006 NOSIG
  • 261000Z AUTO 16008KT 120V200 CAVOK 28/14 Q1006 NOSIG
  • 260930Z AUTO 16008KT 130V200 CAVOK 28/15 Q1006 NOSIG

TAF TAF LFMD
Valid from the 26 at 09:00 until the 27 at 09:00 UTC


260800Z 2609/2709 16008KT CAVOK
BECMG 2618/2620 VRB02KT
BECMG 2708/2709 15008KT
ATIS : +33 4 93 48 73 23
No reported NOTAMs for that airfield.



MET'MAP, your aeronautical weather chart ! - Copyright ORBIFLY December 2007 - Disclaimer

ORBIFLY MET'MAP TEAM :

Programming & Development : Alexandra Zaïnal
Concept & Development : Baudouin d'Aumeries
Co-Development & Prog : Marc-Olivier Méhu
Technical & hardware support : Manuel Goepfert

Contact : metmap@orbifly.com




SOURCES & CREDITS :

   NOAA